Time;durP1;ratioP1;P1;durP2;ratioP2;P2;SDS_P1;SDS_P2;PMS_P1;PMS_P2;Temp;Humidity;BMP_temperature;BMP_pressure;BME280_temperature;BME280_humidity;BME280_pressure;Samples;Min_cycle;Max_cycle;Signal;HPM_P1;HPM_P2
2023/01/15 00:01:44;;;;;;;21.20;9.50;;;;;;;-3.18;100.00;101130.16;105670;1256;62681;-61
2023/01/15 00:04:11;;;;;;;24.60;10.00;;;;;;;-3.19;100.00;101127.63;105507;1260;74879;-59
2023/01/15 00:06:40;;;;;;;26.70;10.10;;;;;;;-3.20;100.00;101130.91;105437;1260;67539;-60
2023/01/15 00:09:07;;;;;;;19.80;7.60;;;;;;;-3.21;100.00;101131.45;105626;1258;73966;-60
2023/01/15 00:11:35;;;;;;;27.20;9.30;;;;;;;-3.20;100.00;101128.01;105750;1255;60661;-59
2023/01/15 00:14:02;;;;;;;21.00;8.00;;;;;;;-3.20;100.00;101132.80;105547;1258;62705;-59
2023/01/15 00:16:30;;;;;;;23.10;9.80;;;;;;;-3.20;100.00;101132.77;105454;1256;75338;-59
2023/01/15 00:19:00;;;;;;;19.00;7.90;;;;;;;-3.20;100.00;101130.58;105121;1258;69641;-62
2023/01/15 00:21:27;;;;;;;19.60;8.30;;;;;;;-3.21;100.00;101136.39;105487;1256;74482;-61
2023/01/15 00:29:26;;;;;;;24.90;9.30;;;;;;;-3.20;100.00;101126.33;105589;1258;74383;-59
2023/01/15 00:31:58;;;;;;;21.90;8.60;;;;;;;-3.21;100.00;101129.25;105835;1257;69455;-59
2023/01/15 00:34:26;;;;;;;27.10;9.50;;;;;;;-3.20;100.00;101122.92;105255;1258;74162;-62
2023/01/15 00:36:53;;;;;;;30.60;10.00;;;;;;;-3.21;100.00;101123.47;105117;1257;62090;-62
2023/01/15 00:39:20;;;;;;;23.60;9.20;;;;;;;-3.20;100.00;101119.19;105353;1253;61682;-62
2023/01/15 00:41:47;;;;;;;22.50;9.20;;;;;;;-3.21;100.00;101120.09;105383;1253;75313;-59
2023/01/15 00:44:15;;;;;;;28.40;11.50;;;;;;;-3.21;100.00;101117.52;105627;1257;69388;-61
2023/01/15 00:46:42;;;;;;;24.20;9.60;;;;;;;-3.21;100.00;101114.80;105226;1258;75194;-59
2023/01/15 00:49:09;;;;;;;25.00;10.00;;;;;;;-3.19;100.00;101117.95;105341;1255;62138;-62
2023/01/15 00:51:37;;;;;;;30.50;9.70;;;;;;;-3.19;100.00;101120.64;104915;1260;63030;-59
2023/01/15 00:54:04;;;;;;;24.60;9.00;;;;;;;-3.18;100.00;101119.09;105137;1260;75589;-59
2023/01/15 00:56:31;;;;;;;20.00;7.80;;;;;;;-3.17;100.00;101112.77;105425;1262;68561;-59
2023/01/15 00:59:00;;;;;;;20.60;9.70;;;;;;;-3.17;100.00;101115.15;104999;1256;75405;-59
2023/01/15 01:01:28;;;;;;;19.80;8.50;;;;;;;-3.17;100.00;101111.92;105080;1256;63638;-59
2023/01/15 01:03:56;;;;;;;22.50;7.60;;;;;;;-3.19;100.00;101110.12;105580;1258;62831;-59
2023/01/15 01:06:23;;;;;;;37.10;10.00;;;;;;;-3.19;100.00;101104.71;105225;1260;74191;-60
2023/01/15 01:08:51;;;;;;;20.00;9.00;;;;;;;-3.20;100.00;101105.22;105118;1260;68566;-58
2023/01/15 01:11:19;;;;;;;27.10;9.30;;;;;;;-3.21;100.00;101097.62;104833;1260;75027;-62
2023/01/15 01:13:47;;;;;;;21.50;8.10;;;;;;;-3.21;100.00;101096.98;105225;1259;62512;-59
2023/01/15 01:16:34;;;;;;;29.10;8.80;;;;;;;-3.22;100.00;101098.71;105377;1253;62563;-60
2023/01/15 01:19:04;;;;;;;21.60;8.00;;;;;;;-3.24;100.00;101096.92;105180;1258;75601;-59
2023/01/15 01:21:31;;;;;;;19.60;8.30;;;;;;;-3.23;100.00;101094.36;105287;1258;69277;-59
2023/01/15 01:24:00;;;;;;;22.20;8.10;;;;;;;-3.24;100.00;101098.50;105512;1253;75101;-62
2023/01/15 01:26:27;;;;;;;20.60;8.40;;;;;;;-3.25;100.00;101095.32;105345;1253;63848;-59
2023/01/15 01:28:55;;;;;;;18.80;8.60;;;;;;;-3.25;100.00;101096.67;105450;1253;62040;-60
2023/01/15 01:31:22;;;;;;;22.80;9.40;;;;;;;-3.25;100.00;101092.71;105217;1253;74888;-60
2023/01/15 01:33:50;;;;;;;21.70;8.30;;;;;;;-3.24;100.00;101092.34;105129;1256;69314;-58
2023/01/15 01:36:18;;;;;;;23.30;8.10;;;;;;;-3.24;100.00;101088.77;105409;1258;75194;-62
2023/01/15 01:38:48;;;;;;;30.50;9.00;;;;;;;-3.25;100.00;101087.45;105482;1253;63644;-59
2023/01/15 01:41:17;;;;;;;19.80;8.30;;;;;;;-3.26;100.00;101082.92;105240;1253;63023;-59
2023/01/15 01:44:04;;;;;;;23.30;9.50;;;;;;;-3.26;100.00;101084.63;105191;1253;74725;-60
2023/01/15 01:46:33;;;;;;;24.30;8.70;;;;;;;-3.28;100.00;101079.95;105250;1253;68224;-60
2023/01/15 01:49:11;;;;;;;21.90;8.00;;;;;;;-3.27;100.00;101077.40;105406;1258;75477;-61
2023/01/15 01:51:44;;;;;;;26.70;9.50;;;;;;;-3.27;100.00;101080.27;104890;1258;62629;-61
2023/01/15 01:54:12;;;;;;;26.60;9.10;;;;;;;-3.27;100.00;101083.65;105227;1259;61781;-59
2023/01/15 01:56:39;;;;;;;30.40;10.10;;;;;;;-3.29;100.00;101076.63;105408;1258;76145;-61
2023/01/15 01:59:07;;;;;;;20.60;8.70;;;;;;;-3.31;100.00;101081.27;105331;1253;68887;-60
2023/01/15 02:01:35;;;;;;;18.00;9.60;;;;;;;-3.30;100.00;101078.21;105234;1256;74512;-61
2023/01/15 02:04:05;;;;;;;27.30;9.70;;;;;;;-3.30;100.00;101080.94;105179;1256;62894;-60
2023/01/15 02:06:32;;;;;;;21.30;9.20;;;;;;;-3.30;100.00;101081.77;105224;1258;61865;-59
2023/01/15 02:09:00;;;;;;;20.30;8.90;;;;;;;-3.30;100.00;101077.69;105275;1253;74581;-59
2023/01/15 02:11:27;;;;;;;21.60;7.90;;;;;;;-3.29;100.00;101076.12;105386;1259;69569;-59
2023/01/15 02:14:01;;;;;;;22.10;9.20;;;;;;;-3.29;100.00;101075.79;105131;1259;74097;-60
2023/01/15 02:16:40;;;;;;;21.80;8.60;;;;;;;-3.29;100.00;101067.62;105057;1253;62443;-59
2023/01/15 02:19:31;;;;;;;20.30;9.20;;;;;;;-3.30;100.00;101062.71;105141;1258;61220;-61
2023/01/15 02:22:23;;;;;;;27.60;9.30;;;;;;;-3.31;100.00;101062.94;104800;1258;75003;-59
2023/01/15 02:25:16;;;;;;;24.50;8.50;;;;;;;-3.32;100.00;101060.30;105557;1258;68509;-63
2023/01/15 02:27:50;;;;;;;27.50;8.80;;;;;;;-3.33;100.00;101059.64;105193;1256;75096;-60
2023/01/15 02:30:24;;;;;;;25.70;9.20;;;;;;;-3.33;100.00;101066.45;105092;1259;60987;-59
2023/01/15 02:32:57;;;;;;;24.40;10.60;;;;;;;-3.34;100.00;101070.38;105039;1258;61672;-60
2023/01/15 02:35:37;;;;;;;21.40;9.40;;;;;;;-3.34;100.00;101069.05;105359;1253;75229;-59
2023/01/15 02:38:07;;;;;;;;;;;;;;;-3.34;100.00;101075.69;105357;1258;69364;-62
2023/01/15 02:40:35;;;;;;;20.70;9.00;;;;;;;-3.35;100.00;101076.06;105420;1253;75389;-63
2023/01/15 02:43:02;;;;;;;19.30;9.50;;;;;;;-3.34;100.00;101078.58;105211;1259;62345;-59
2023/01/15 02:45:31;;;;;;;29.20;9.10;;;;;;;-3.35;100.00;101079.30;105004;1253;62809;-59
2023/01/15 02:48:13;;;;;;;21.10;9.90;;;;;;;-3.36;100.00;101072.70;105418;1260;76266;-64
2023/01/15 02:50:56;;;;;;;30.50;10.40;;;;;;;-3.36;100.00;101074.77;105221;1260;69683;-61
2023/01/15 02:53:25;;;;;;;27.00;10.10;;;;;;;-3.34;100.00;101073.48;105225;1256;75155;-60
2023/01/15 02:55:55;;;;;;;20.90;9.30;;;;;;;-3.33;100.00;101073.73;105192;1257;61746;-60
2023/01/15 02:58:31;;;;;;;24.40;8.80;;;;;;;-3.33;100.00;101078.02;105066;1256;63047;-62
2023/01/15 03:01:00;;;;;;;27.20;10.00;;;;;;;-3.33;100.00;101072.22;105018;1257;76359;-60
2023/01/15 03:03:34;;;;;;;25.40;10.60;;;;;;;-3.33;100.00;101074.61;105312;1258;68268;-62
2023/01/15 03:06:10;;;;;;;30.30;10.30;;;;;;;-3.33;100.00;101077.50;105110;1256;74417;-60
2023/01/15 03:08:38;;;;;;;16.10;7.20;;;;;;;-3.33;100.00;101075.61;105210;1255;63464;-60
2023/01/15 03:11:11;;;;;;;29.20;10.50;;;;;;;-3.33;100.00;101070.00;105274;1256;62483;-61
2023/01/15 03:14:03;;;;;;;27.40;10.10;;;;;;;-3.34;100.00;101069.55;104918;1256;75274;-60
2023/01/15 03:17:04;;;;;;;28.50;10.00;;;;;;;-3.34;100.00;101075.34;105245;1255;68794;-61
2023/01/15 03:19:40;;;;;;;22.10;8.70;;;;;;;-3.34;100.00;101072.45;105113;1256;74024;-59
2023/01/15 03:22:09;;;;;;;28.30;11.00;;;;;;;-3.34;100.00;101069.20;105283;1256;61911;-60
2023/01/15 03:24:42;;;;;;;25.80;10.90;;;;;;;-3.32;100.00;101070.67;105392;1256;63190;-61
2023/01/15 03:27:10;;;;;;;21.90;10.30;;;;;;;-3.31;100.00;101072.66;105239;1258;75443;-59
2023/01/15 03:29:41;;;;;;;26.80;10.60;;;;;;;-3.32;100.00;101073.04;105230;1254;69660;-59
2023/01/15 03:32:08;;;;;;;31.10;10.50;;;;;;;-3.33;100.00;101073.41;105336;1256;75143;-60
2023/01/15 03:34:43;;;;;;;35.60;11.00;;;;;;;-3.31;100.00;101074.66;105166;1255;62619;-60
2023/01/15 03:37:14;;;;;;;30.70;11.40;;;;;;;-3.31;100.00;101068.73;105105;1259;61754;-60
2023/01/15 03:39:41;;;;;;;26.30;10.70;;;;;;;-3.31;100.00;101071.63;105207;1261;76333;-60
2023/01/15 03:42:34;;;;;;;23.90;9.50;;;;;;;-3.32;100.00;101074.37;104796;1261;68906;-61
2023/01/15 03:45:13;;;;;;;34.80;11.00;;;;;;;-3.33;100.00;101076.63;104882;1258;73899;-59
2023/01/15 03:47:59;;;;;;;27.60;9.30;;;;;;;-3.33;100.00;101078.15;105415;1254;61711;-59
2023/01/15 03:50:36;;;;;;;28.10;11.10;;;;;;;-3.32;100.00;101078.15;105213;1259;61412;-60
2023/01/15 03:53:12;;;;;;;27.30;12.50;;;;;;;-3.30;100.00;101078.38;105178;1253;74989;-64
2023/01/15 03:56:04;;;;;;;26.20;10.90;;;;;;;-3.29;100.00;101076.47;105297;1259;68272;-60
2023/01/15 03:58:49;;;;;;;33.60;11.70;;;;;;;-3.28;100.00;101079.78;105156;1260;75467;-60
2023/01/15 04:01:22;;;;;;;32.20;11.10;;;;;;;-3.24;100.00;101086.38;104923;1261;60707;-60
2023/01/15 04:03:49;;;;;;;30.30;11.10;;;;;;;-3.22;100.00;101081.04;104954;1256;62817;-60
2023/01/15 04:06:19;;;;;;;27.50;11.50;;;;;;;-3.24;100.00;101076.70;104849;1253;76321;-60
2023/01/15 04:08:46;;;;;;;29.10;11.30;;;;;;;-3.24;100.00;101071.61;105249;1260;68589;-60
2023/01/15 04:11:23;;;;;;;29.60;12.10;;;;;;;-3.24;100.00;101074.48;105401;1253;74929;-60
2023/01/15 04:13:54;;;;;;;36.90;11.90;;;;;;;-3.23;100.00;101075.66;105709;1259;62301;-63
2023/01/15 04:16:47;;;;;;;28.80;11.20;;;;;;;-3.25;100.00;101076.56;105384;1253;62824;-64
2023/01/15 04:19:16;;;;;;;32.00;12.00;;;;;;;-3.25;100.00;101074.73;105450;1253;76879;-60
2023/01/15 04:21:54;;;;;;;33.10;10.40;;;;;;;-3.25;100.00;101079.31;105241;1258;68327;-60
2023/01/15 04:24:21;;;;;;;27.80;11.10;;;;;;;-3.25;100.00;101081.90;105437;1256;75294;-60
2023/01/15 04:26:49;;;;;;;46.50;12.80;;;;;;;-3.26;100.00;101084.80;105410;1256;62339;-62
2023/01/15 04:29:16;;;;;;;40.00;13.20;;;;;;;-3.27;100.00;101084.66;104956;1254;63104;-61
2023/01/15 04:31:43;;;;;;;27.50;10.70;;;;;;;-3.27;100.00;101086.36;105459;1254;76461;-64
2023/01/15 04:34:10;;;;;;;30.70;11.60;;;;;;;-3.27;100.00;101090.27;104885;1259;69262;-59
2023/01/15 04:36:37;;;;;;;28.00;12.60;;;;;;;-3.26;100.00;101085.66;105013;1258;74804;-60
2023/01/15 04:39:04;;;;;;;22.60;10.20;;;;;;;-3.26;100.00;101083.28;105320;1258;63019;-62
2023/01/15 04:44:18;;;;;;;27.90;10.90;;;;;;;-3.26;100.00;101078.02;105782;1256;76089;-60
2023/01/15 04:46:46;;;;;;;37.10;11.20;;;;;;;-3.26;100.00;101077.14;105371;1258;68745;-61
2023/01/15 04:49:15;;;;;;;30.10;11.30;;;;;;;-3.25;100.00;101083.38;105003;1256;75702;-60
2023/01/15 04:51:42;;;;;;;32.20;10.80;;;;;;;-3.25;100.00;101086.77;105193;1271;62754;-62
2023/01/15 04:54:10;;;;;;;32.30;12.70;;;;;;;-3.25;100.00;101094.61;104937;1260;62367;-60
2023/01/15 04:56:56;;;;;;;29.70;11.40;;;;;;;-3.26;100.00;101092.63;105118;1256;76047;-59
2023/01/15 04:59:25;;;;;;;28.30;10.60;;;;;;;-3.26;100.00;101088.20;105042;1257;69210;-63
2023/01/15 05:01:52;;;;;;;44.80;14.70;;;;;;;-3.27;100.00;101084.67;105424;1258;75118;-58
2023/01/15 05:04:31;;;;;;;28.00;10.20;;;;;;;-3.28;100.00;101082.52;104971;1266;63223;-61
2023/01/15 05:07:00;;;;;;;24.40;9.90;;;;;;;-3.30;100.00;101085.85;105222;1260;61836;-60
2023/01/15 05:09:28;;;;;;;36.60;12.10;;;;;;;-3.30;100.00;101084.97;105289;1255;76395;-59
2023/01/15 05:11:55;;;;;;;35.50;11.90;;;;;;;-3.30;100.00;101082.44;105487;1254;69483;-60
2023/01/15 05:14:22;;;;;;;29.80;11.30;;;;;;;-3.31;100.00;101080.81;105416;1258;75791;-59
2023/01/15 05:16:49;;;;;;;29.90;10.70;;;;;;;-3.32;100.00;101081.87;105626;1261;63582;-62
2023/01/15 05:19:17;;;;;;;28.00;10.60;;;;;;;-3.34;100.00;101082.46;105349;1259;61908;-63
2023/01/15 05:21:44;;;;;;;26.10;10.30;;;;;;;-3.34;100.00;101080.06;105437;1256;75318;-59
2023/01/15 05:24:15;;;;;;;28.70;10.00;;;;;;;-3.34;100.00;101079.05;105421;1260;68503;-60
2023/01/15 05:26:43;;;;;;;33.90;10.00;;;;;;;-3.36;100.00;101082.21;105512;1258;75265;-60
2023/01/15 05:29:10;;;;;;;34.00;11.10;;;;;;;-3.39;100.00;101084.59;105708;1259;64556;-60
2023/01/15 05:31:38;;;;;;;33.90;11.60;;;;;;;-3.41;100.00;101079.39;105294;1259;62568;-59
2023/01/15 05:34:05;;;;;;;32.40;12.20;;;;;;;-3.41;100.00;101083.98;105486;1256;76390;-58
2023/01/15 05:36:32;;;;;;;25.40;10.80;;;;;;;-3.42;100.00;101086.75;105261;1258;69386;-58
2023/01/15 05:39:00;;;;;;;29.00;10.30;;;;;;;-3.43;100.00;101086.64;105817;1259;75305;-63
2023/01/15 05:44:15;;;;;;;27.40;10.00;;;;;;;-3.45;100.00;101099.98;105906;1259;62506;-60
2023/01/15 05:46:43;;;;;;;29.60;8.80;;;;;;;-3.46;100.00;101105.77;105838;1259;76326;-59
2023/01/15 05:49:12;;;;;;;21.50;10.20;;;;;;;-3.47;100.00;101097.37;105690;1258;68632;-60
2023/01/15 05:51:40;;;;;;;27.00;10.80;;;;;;;-3.47;100.00;101105.02;105850;1259;73988;-60
2023/01/15 05:54:09;;;;;;;26.60;10.90;;;;;;;-3.48;100.00;101101.98;105744;1253;63549;-61
2023/01/15 05:56:36;;;;;;;33.30;9.50;;;;;;;-3.47;100.00;101106.38;105791;1259;62857;-59
2023/01/15 05:59:04;;;;;;;27.80;12.30;;;;;;;-3.47;100.00;101107.23;105621;1258;76278;-62
2023/01/15 06:01:31;;;;;;;24.40;9.80;;;;;;;-3.46;100.00;101105.48;105650;1257;69906;-59
2023/01/15 06:03:59;;;;;;;30.50;9.70;;;;;;;-3.47;100.00;101108.40;105503;1259;75107;-61
2023/01/15 06:06:27;;;;;;;25.80;9.70;;;;;;;-3.48;100.00;101100.98;105457;1257;62078;-60
2023/01/15 06:08:54;;;;;;;33.40;11.70;;;;;;;-3.48;100.00;101103.88;105726;1259;62570;-62
2023/01/15 06:11:21;;;;;;;33.90;10.00;;;;;;;-3.48;100.00;101106.27;105111;1259;75013;-59
2023/01/15 06:13:48;;;;;;;25.40;10.20;;;;;;;-3.50;100.00;101100.71;105342;1261;69440;-59
2023/01/15 06:16:17;;;;;;;30.80;9.50;;;;;;;-3.49;100.00;101100.01;105336;1259;75202;-60
2023/01/15 06:18:44;;;;;;;30.60;9.30;;;;;;;-3.50;100.00;101098.67;105285;1255;63404;-59
2023/01/15 06:21:12;;;;;;;34.60;10.60;;;;;;;-3.51;100.00;101098.41;105005;1256;62694;-62
2023/01/15 06:23:39;;;;;;;29.10;9.10;;;;;;;-3.52;100.00;101101.50;105284;1259;76252;-60
2023/01/15 06:26:10;;;;;;;38.00;9.20;;;;;;;-3.53;100.00;101103.92;105252;1259;69578;-60
2023/01/15 06:28:37;;;;;;;31.80;8.90;;;;;;;-3.54;100.00;101099.91;105183;1259;75072;-60
2023/01/15 06:31:08;;;;;;;30.50;9.00;;;;;;;-3.52;100.00;101101.36;105063;1268;63803;-59
2023/01/15 06:33:36;;;;;;;32.10;10.20;;;;;;;-3.52;100.00;101105.08;104977;1267;60336;-60
2023/01/15 06:36:11;;;;;;;34.50;10.00;;;;;;;-3.52;100.00;101105.92;105366;1254;76501;-58
2023/01/15 06:38:38;;;;;;;35.00;9.10;;;;;;;-3.53;100.00;101106.48;105209;1256;68474;-58
2023/01/15 06:47:19;;;;;;;36.20;9.70;;;;;;;-3.57;100.00;101109.38;105768;1257;74905;-60
2023/01/15 06:49:30;;;;;;;40.10;9.10;;;;;;;-3.53;100.00;101117.69;104930;1260;75327;-59
2023/01/15 06:51:57;;;;;;;35.40;9.40;;;;;;;-3.52;100.00;101121.23;105384;1260;68340;-59
2023/01/15 06:54:25;;;;;;;37.80;10.10;;;;;;;-3.51;100.00;101120.18;105508;1259;73433;-62
2023/01/15 06:56:52;;;;;;;26.40;9.20;;;;;;;-3.52;100.00;101117.48;104907;1255;61744;-59
2023/01/15 06:59:19;;;;;;;44.20;10.70;;;;;;;-3.55;100.00;101109.64;105339;1256;61131;-60
2023/01/15 07:01:47;;;;;;;34.70;9.30;;;;;;;-3.56;100.00;101110.69;105602;1258;76197;-59
2023/01/15 07:04:14;;;;;;;42.30;9.90;;;;;;;-3.55;100.00;101113.40;105344;1257;69597;-62
2023/01/15 07:06:41;;;;;;;43.90;10.20;;;;;;;-3.56;100.00;101115.81;105013;1254;74002;-60
2023/01/15 07:09:08;;;;;;;42.50;10.00;;;;;;;-3.60;100.00;101107.65;105117;1258;63664;-60
2023/01/15 07:11:48;;;;;;;41.90;10.20;;;;;;;-3.60;100.00;101105.29;105176;1259;61526;-58
2023/01/15 07:14:20;;;;;;;39.00;9.80;;;;;;;-3.57;100.00;101105.33;104997;1253;75070;-62
2023/01/15 07:16:47;;;;;;;37.80;10.20;;;;;;;-3.55;100.00;101106.06;105216;1261;70220;-59
2023/01/15 07:19:14;;;;;;;42.40;9.80;;;;;;;-3.53;100.00;101108.70;105289;1255;73514;-61
2023/01/15 07:21:42;;;;;;;32.70;9.20;;;;;;;-3.52;100.00;101100.98;105509;1258;63455;-59
2023/01/15 07:24:10;;;;;;;44.40;11.60;;;;;;;-3.49;100.00;101099.48;105780;1254;62537;-60
2023/01/15 07:26:37;;;;;;;48.50;9.70;;;;;;;-3.46;100.00;101103.40;105317;1258;74643;-64
2023/01/15 07:29:05;;;;;;;45.90;10.70;;;;;;;-3.45;100.00;101103.20;105371;1258;68611;-60
2023/01/15 07:31:33;;;;;;;41.10;10.40;;;;;;;-3.45;100.00;101106.44;105353;1259;73881;-59
2023/01/15 07:34:00;;;;;;;45.10;9.80;;;;;;;-3.45;100.00;101102.52;105324;1254;63533;-59
2023/01/15 07:36:27;;;;;;;45.70;10.60;;;;;;;-3.43;100.00;101097.33;105629;1254;62869;-63
2023/01/15 07:38:54;;;;;;;40.60;10.20;;;;;;;-3.42;100.00;101095.42;104980;1259;75176;-59
2023/01/15 07:49:44;;;;;;;40.50;10.60;;;;;;;-3.37;100.00;101102.49;105246;1258;62834;-61
2023/01/15 07:52:15;;;;;;;56.20;11.70;;;;;;;-3.39;100.00;101100.38;105364;1254;75558;-60
2023/01/15 07:54:43;;;;;;;55.50;11.10;;;;;;;-3.39;100.00;101099.58;105279;1254;67502;-59
2023/01/15 07:57:11;;;;;;;46.20;12.10;;;;;;;-3.42;100.00;101097.47;105324;1257;74113;-59
2023/01/15 07:59:38;;;;;;;55.90;12.60;;;;;;;-3.43;100.00;101100.38;105409;1260;61785;-63
2023/01/15 08:02:06;;;;;;;53.00;12.70;;;;;;;-3.43;100.00;101095.99;104915;1260;61379;-60
2023/01/15 08:04:33;;;;;;;54.70;12.60;;;;;;;-3.43;100.00;101096.30;105106;1256;76307;-60
2023/01/15 08:07:01;;;;;;;50.20;12.00;;;;;;;-3.39;100.00;101097.48;104959;1259;69745;-59
2023/01/15 08:09:28;;;;;;;71.00;12.90;;;;;;;-3.36;100.00;101094.45;105470;1259;74826;-62
2023/01/15 08:17:33;;;;;;;62.20;11.60;;;;;;;-3.26;100.00;101092.30;105143;1267;75394;-60
2023/01/15 08:20:04;;;;;;;39.50;9.20;;;;;;;-3.25;100.00;101089.17;105317;1260;68610;-60
2023/01/15 08:22:31;;;;;;;52.00;12.70;;;;;;;-3.23;100.00;101095.67;105311;1257;73963;-59
2023/01/15 08:24:59;;;;;;;53.10;11.50;;;;;;;-3.23;100.00;101087.53;105460;1259;62599;-60
2023/01/15 08:27:27;;;;;;;55.00;12.20;;;;;;;-3.22;100.00;101089.02;105149;1257;63535;-60
2023/01/15 08:29:55;;;;;;;42.90;12.80;;;;;;;-3.23;100.00;101079.86;105667;1252;75252;-60
2023/01/15 08:32:23;;;;;;;49.40;11.10;;;;;;;-3.22;100.00;101076.62;105079;1257;69104;-60
2023/01/15 08:34:50;;;;;;;63.60;14.60;;;;;;;-3.19;100.00;101077.82;105413;1267;75116;-61
2023/01/15 08:37:18;;;;;;;45.70;12.40;;;;;;;-3.19;100.00;101083.60;105051;1259;64243;-61
2023/01/15 08:39:45;;;;;;;66.70;11.90;;;;;;;-3.20;100.00;101078.01;104985;1255;62719;-60
2023/01/15 08:42:12;;;;;;;60.50;14.60;;;;;;;-3.20;100.00;101078.73;105342;1254;76334;-61
2023/01/15 08:44:39;;;;;;;38.20;11.00;;;;;;;-3.19;100.00;101081.05;105037;1254;69599;-60
2023/01/15 08:47:06;;;;;;;52.40;11.20;;;;;;;-3.17;100.00;101071.30;105321;1259;75120;-62
2023/01/15 08:49:33;;;;;;;59.80;12.80;;;;;;;-3.19;100.00;101074.24;105063;1254;62521;-60
2023/01/15 08:52:00;;;;;;;67.00;10.30;;;;;;;-3.23;100.00;101073.78;105405;1254;62566;-60
2023/01/15 08:54:28;;;;;;;62.30;11.80;;;;;;;-3.24;100.00;101066.66;105271;1258;76126;-61
2023/01/15 08:56:55;;;;;;;51.90;11.00;;;;;;;-3.24;100.00;101065.48;105253;1254;69204;-60
2023/01/15 08:59:22;;;;;;;46.20;10.60;;;;;;;-3.23;100.00;101067.80;105402;1255;75244;-61
2023/01/15 09:01:50;;;;;;;60.40;11.30;;;;;;;-3.24;100.00;101067.39;105275;1260;62532;-61
2023/01/15 09:04:18;;;;;;;53.40;11.40;;;;;;;-3.26;100.00;101058.98;105235;1261;61896;-61
2023/01/15 09:06:46;;;;;;;66.10;12.90;;;;;;;-3.26;100.00;101057.62;104953;1254;75298;-60
2023/01/15 09:09:13;;;;;;;59.30;11.80;;;;;;;-3.29;100.00;101055.52;105228;1259;69594;-61
2023/01/15 09:11:43;;;;;;;51.80;10.80;;;;;;;-3.28;100.00;101052.98;105157;1254;75231;-62
2023/01/15 09:14:12;;;;;;;61.00;11.90;;;;;;;-3.27;100.00;101048.48;104894;1254;63757;-60
2023/01/15 09:16:59;;;;;;;54.50;14.80;;;;;;;-3.24;100.00;101052.56;105364;1260;61762;-62
2023/01/15 09:19:27;;;;;;;72.90;19.00;;;;;;;-3.21;100.00;101051.76;105534;1259;76644;-60
2023/01/15 09:21:54;;;;;;;55.90;14.50;;;;;;;-3.19;100.00;101051.14;105255;1260;68501;-60
2023/01/15 09:24:21;;;;;;;84.70;19.30;;;;;;;-3.16;100.00;101047.27;104997;1255;75204;-61
2023/01/15 09:26:51;;;;;;;133.00;43.60;;;;;;;-3.13;100.00;101044.73;105218;1260;60797;-60
2023/01/15 09:29:19;;;;;;;84.20;21.30;;;;;;;-3.08;100.00;101039.42;105105;1254;61786;-60
2023/01/15 09:31:46;;;;;;;56.70;11.50;;;;;;;-3.08;100.00;101031.88;105245;1260;76332;-60
2023/01/15 09:34:13;;;;;;;58.50;10.40;;;;;;;-3.10;100.00;101027.26;105003;1254;69254;-60
2023/01/15 09:36:41;;;;;;;50.50;11.90;;;;;;;-3.12;100.00;101029.91;105241;1254;75049;-60
2023/01/15 09:39:10;;;;;;;61.20;12.20;;;;;;;-3.15;100.00;101025.96;105342;1260;62668;-62
2023/01/15 09:45:08;;;;;;;55.10;11.00;;;;;;;-3.19;100.00;101021.07;105273;1254;76002;-60
2023/01/15 09:47:35;;;;;;;50.70;9.60;;;;;;;-3.21;100.00;101009.11;105473;1260;68422;-60
2023/01/15 09:50:20;;;;;;;77.10;13.90;;;;;;;-3.20;100.00;101008.52;105777;1254;75120;-61
2023/01/15 09:53:12;;;;;;;65.50;15.00;;;;;;;-3.15;100.00;101008.98;105316;1258;60984;-61
2023/01/15 09:55:45;;;;;;;57.50;10.50;;;;;;;-3.15;100.00;101002.38;104881;1261;62584;-64
2023/01/15 09:58:13;;;;;;;63.70;13.40;;;;;;;-3.19;100.00;100997.56;105238;1255;76755;-61
2023/01/15 10:00:48;;;;;;;52.50;11.30;;;;;;;-3.18;100.00;100994.31;105339;1261;69491;-62
2023/01/15 10:03:36;;;;;;;66.10;11.30;;;;;;;-3.17;100.00;100996.84;105257;1255;75060;-61
2023/01/15 10:06:24;;;;;;;52.50;12.40;;;;;;;-3.17;100.00;100993.42;105375;1258;60580;-61
2023/01/15 10:09:16;;;;;;;56.60;12.50;;;;;;;-3.16;100.00;100990.48;104998;1255;62677;-62
2023/01/15 10:14:44;;;;;;;61.70;15.50;;;;;;;-3.11;100.00;100987.55;104914;1259;69151;-61
2023/01/15 10:17:26;;;;;;;57.60;14.30;;;;;;;-3.10;100.00;100987.14;104853;1255;406663;-60
2023/01/15 10:19:53;;;;;;;63.80;12.60;;;;;;;-3.08;100.00;100987.39;105110;1254;63482;-61
2023/01/15 10:22:23;;;;;;;56.60;10.70;;;;;;;-3.06;100.00;100983.34;105487;1258;62997;-61
2023/01/15 10:24:56;;;;;;;52.70;13.90;;;;;;;-3.02;100.00;100981.63;105354;1254;74422;-62
2023/01/15 10:27:26;;;;;;;63.00;12.20;;;;;;;-2.99;100.00;100984.36;105505;1259;68277;-62
2023/01/15 10:29:57;;;;;;;66.50;11.90;;;;;;;-3.01;100.00;100982.24;105315;1254;75438;-63
2023/01/15 10:32:52;;;;;;;;;;;;;;;-3.04;100.00;100983.73;105406;1261;62342;-61
2023/01/15 10:35:50;;;;;;;59.20;11.20;;;;;;;-3.04;100.00;100977.27;105254;1254;62599;-60
2023/01/15 10:38:56;;;;;;;47.70;12.50;;;;;;;-2.99;100.00;100977.53;105538;1259;76484;-60
2023/01/15 10:42:05;;;;;;;63.60;13.80;;;;;;;-2.93;100.00;100979.64;105452;1255;69487;-60
2023/01/15 10:44:55;;;;;;;78.30;18.40;;;;;;;-2.92;100.00;100979.21;105429;1256;74921;-63
2023/01/15 10:47:28;;;;;;;60.60;11.80;;;;;;;-2.89;100.00;100979.91;105487;1258;62562;-62
2023/01/15 10:49:55;;;;;;;52.80;13.40;;;;;;;-2.88;100.00;100976.98;105503;1254;62295;-62
2023/01/15 10:52:27;;;;;;;58.40;10.40;;;;;;;-2.88;100.00;100977.46;105292;1257;75127;-60
2023/01/15 10:54:57;;;;;;;;;;;;;;;-2.87;100.00;100983.56;105533;1255;68282;-62
2023/01/15 10:57:37;;;;;;;51.00;9.70;;;;;;;-2.87;100.00;100982.73;105889;1258;74505;-61
2023/01/15 11:00:05;;;;;;;50.40;9.90;;;;;;;-2.86;100.00;100978.61;105489;1255;61857;-64
2023/01/15 11:02:44;;;;;;;56.30;11.10;;;;;;;-2.84;100.00;100978.98;105633;1259;61760;-63
2023/01/15 11:05:18;;;;;;;55.20;10.20;;;;;;;-2.83;100.00;100977.39;105630;1259;76034;-60
2023/01/15 11:07:49;;;;;;;53.00;12.90;;;;;;;-2.85;100.00;100974.48;105926;1257;67688;-64
2023/01/15 11:10:37;;;;;;;49.20;12.70;;;;;;;-2.89;100.00;100973.13;105651;1254;75280;-60
2023/01/15 11:21:39;;;;;;;63.00;13.70;;;;;;;-2.89;100.00;100963.27;105202;1255;68499;-60
2023/01/15 11:24:14;;;;;;;50.90;11.50;;;;;;;-2.90;100.00;100965.02;105266;1254;75724;-62
2023/01/15 11:26:44;;;;;;;66.00;13.10;;;;;;;-2.93;100.00;100963.95;105178;1262;63630;-62
2023/01/15 11:29:13;;;;;;;72.40;13.80;;;;;;;-2.95;100.00;100964.07;105049;1254;62973;-63
2023/01/15 11:31:41;;;;;;;62.90;12.10;;;;;;;-2.96;100.00;100965.98;105204;1256;76400;-61
2023/01/15 11:34:18;;;;;;;67.50;12.50;;;;;;;-2.95;100.00;100965.77;105447;1260;68975;-63
2023/01/15 11:36:47;;;;;;;58.10;12.00;;;;;;;-2.95;100.00;100966.30;105427;1254;75677;-61
2023/01/15 11:39:26;;;;;;;70.20;12.10;;;;;;;-2.97;100.00;100960.95;105568;1253;63860;-60
2023/01/15 11:50:49;;;;;;;63.30;12.40;;;;;;;-3.01;100.00;100960.83;105143;1257;75219;-59
2023/01/15 11:53:23;;;;;;;53.30;11.90;;;;;;;-3.01;100.00;100954.36;105449;1254;61818;-61
2023/01/15 11:55:58;;;;;;;50.40;10.10;;;;;;;-3.04;100.00;100949.23;105275;1254;61756;-60
2023/01/15 11:58:27;;;;;;;60.90;11.70;;;;;;;-3.02;100.00;100951.37;105404;1257;76324;-62
2023/01/15 12:00:58;;;;;;;42.20;10.70;;;;;;;-3.03;100.00;100950.39;105328;1256;68209;-61
2023/01/15 12:03:27;;;;;;;56.90;12.20;;;;;;;-3.05;100.00;100946.40;105391;1258;74600;-61
2023/01/15 12:05:59;;;;;;;53.70;11.80;;;;;;;-3.06;100.00;100943.09;105291;1259;62558;-61
2023/01/15 12:08:41;;;;;;;44.90;11.10;;;;;;;-3.05;100.00;100945.91;105524;1254;62431;-62
2023/01/15 12:11:27;;;;;;;59.20;12.10;;;;;;;-3.05;100.00;100944.71;105224;1254;76737;-61